sensor_id;sensor_type;location;lat;lon;timestamp;P1;durP1;ratioP1;P2;durP2;ratioP2
10432;SDS011;5263;48.680;9.004;2023-08-06T00:00:08;2.93;;;0.97;;
10432;SDS011;5263;48.680;9.004;2023-08-06T00:02:34;2.83;;;0.90;;
10432;SDS011;5263;48.680;9.004;2023-08-06T00:05:00;0.77;;;0.77;;
10432;SDS011;5263;48.680;9.004;2023-08-06T00:07:25;1.53;;;0.80;;
10432;SDS011;5263;48.680;9.004;2023-08-06T00:09:51;1.57;;;1.00;;
10432;SDS011;5263;48.680;9.004;2023-08-06T00:12:17;1.47;;;1.00;;
10432;SDS011;5263;48.680;9.004;2023-08-06T00:14:42;2.73;;;1.90;;
10432;SDS011;5263;48.680;9.004;2023-08-06T00:17:08;1.10;;;0.70;;
10432;SDS011;5263;48.680;9.004;2023-08-06T00:19:34;1.77;;;1.00;;
10432;SDS011;5263;48.680;9.004;2023-08-06T00:21:59;0.70;;;0.70;;
10432;SDS011;5263;48.680;9.004;2023-08-06T00:24:26;1.10;;;1.00;;
10432;SDS011;5263;48.680;9.004;2023-08-06T00:26:52;5.23;;;0.70;;
10432;SDS011;5263;48.680;9.004;2023-08-06T00:29:18;0.80;;;0.80;;
10432;SDS011;5263;48.680;9.004;2023-08-06T00:31:43;5.13;;;0.87;;
10432;SDS011;5263;48.680;9.004;2023-08-06T00:34:09;1.73;;;0.90;;
10432;SDS011;5263;48.680;9.004;2023-08-06T00:36:34;6.33;;;1.30;;
10432;SDS011;5263;48.680;9.004;2023-08-06T00:39:00;0.87;;;0.87;;
10432;SDS011;5263;48.680;9.004;2023-08-06T00:41:26;3.73;;;1.10;;
10432;SDS011;5263;48.680;9.004;2023-08-06T00:43:51;2.07;;;0.90;;
10432;SDS011;5263;48.680;9.004;2023-08-06T00:46:17;3.33;;;0.90;;
10432;SDS011;5263;48.680;9.004;2023-08-06T00:48:42;0.87;;;0.73;;
10432;SDS011;5263;48.680;9.004;2023-08-06T00:51:09;3.70;;;1.00;;
10432;SDS011;5263;48.680;9.004;2023-08-06T00:53:36;1.10;;;1.00;;
10432;SDS011;5263;48.680;9.004;2023-08-06T00:56:03;1.33;;;0.93;;
10432;SDS011;5263;48.680;9.004;2023-08-06T00:58:29;1.07;;;0.90;;
10432;SDS011;5263;48.680;9.004;2023-08-06T01:00:55;2.23;;;1.10;;
10432;SDS011;5263;48.680;9.004;2023-08-06T01:03:20;1.27;;;1.17;;
10432;SDS011;5263;48.680;9.004;2023-08-06T01:05:46;1.80;;;1.20;;
10432;SDS011;5263;48.680;9.004;2023-08-06T01:10:55;3.70;;;1.10;;
10432;SDS011;5263;48.680;9.004;2023-08-06T01:13:46;2.73;;;1.50;;
10432;SDS011;5263;48.680;9.004;2023-08-06T01:16:18;1.17;;;0.97;;
10432;SDS011;5263;48.680;9.004;2023-08-06T01:18:48;0.80;;;0.80;;
10432;SDS011;5263;48.680;9.004;2023-08-06T01:21:17;3.43;;;1.20;;
10432;SDS011;5263;48.680;9.004;2023-08-06T01:23:43;1.30;;;1.07;;
10432;SDS011;5263;48.680;9.004;2023-08-06T01:31:31;1.33;;;0.90;;
10432;SDS011;5263;48.680;9.004;2023-08-06T01:34:03;0.93;;;0.80;;
10432;SDS011;5263;48.680;9.004;2023-08-06T01:36:32;1.10;;;1.00;;
10432;SDS011;5263;48.680;9.004;2023-08-06T01:38:58;2.50;;;0.80;;
10432;SDS011;5263;48.680;9.004;2023-08-06T01:41:24;0.73;;;0.73;;
10432;SDS011;5263;48.680;9.004;2023-08-06T01:43:50;1.60;;;0.77;;
10432;SDS011;5263;48.680;9.004;2023-08-06T01:46:15;1.30;;;1.00;;
10432;SDS011;5263;48.680;9.004;2023-08-06T01:48:41;2.60;;;0.73;;
10432;SDS011;5263;48.680;9.004;2023-08-06T01:51:07;4.73;;;0.90;;
10432;SDS011;5263;48.680;9.004;2023-08-06T01:53:32;1.23;;;0.80;;
10432;SDS011;5263;48.680;9.004;2023-08-06T01:55:58;1.20;;;0.80;;
10432;SDS011;5263;48.680;9.004;2023-08-06T01:58:24;0.90;;;0.90;;
10432;SDS011;5263;48.680;9.004;2023-08-06T02:00:50;0.90;;;0.90;;
10432;SDS011;5263;48.680;9.004;2023-08-06T02:03:15;0.93;;;0.93;;
10432;SDS011;5263;48.680;9.004;2023-08-06T02:05:41;2.00;;;0.90;;
10432;SDS011;5263;48.680;9.004;2023-08-06T02:08:07;0.97;;;0.80;;
10432;SDS011;5263;48.680;9.004;2023-08-06T02:10:32;1.73;;;1.00;;
10432;SDS011;5263;48.680;9.004;2023-08-06T02:12:58;1.00;;;1.00;;
10432;SDS011;5263;48.680;9.004;2023-08-06T02:15:24;2.30;;;1.20;;
10432;SDS011;5263;48.680;9.004;2023-08-06T02:17:49;1.33;;;1.10;;
10432;SDS011;5263;48.680;9.004;2023-08-06T02:20:15;1.23;;;1.13;;
10432;SDS011;5263;48.680;9.004;2023-08-06T02:22:41;3.43;;;1.10;;
10432;SDS011;5263;48.680;9.004;2023-08-06T02:25:06;2.00;;;0.97;;
10432;SDS011;5263;48.680;9.004;2023-08-06T02:27:32;1.17;;;1.00;;
10432;SDS011;5263;48.680;9.004;2023-08-06T02:29:58;1.47;;;1.10;;
10432;SDS011;5263;48.680;9.004;2023-08-06T02:32:23;1.53;;;1.10;;
10432;SDS011;5263;48.680;9.004;2023-08-06T02:34:49;1.93;;;1.00;;
10432;SDS011;5263;48.680;9.004;2023-08-06T02:37:14;1.17;;;1.07;;
10432;SDS011;5263;48.680;9.004;2023-08-06T02:39:40;4.40;;;1.00;;
10432;SDS011;5263;48.680;9.004;2023-08-06T02:42:06;1.20;;;0.90;;
10432;SDS011;5263;48.680;9.004;2023-08-06T02:44:32;1.37;;;0.90;;
10432;SDS011;5263;48.680;9.004;2023-08-06T02:46:58;0.80;;;0.80;;
10432;SDS011;5263;48.680;9.004;2023-08-06T02:49:25;3.67;;;0.90;;
10432;SDS011;5263;48.680;9.004;2023-08-06T02:51:50;1.83;;;0.90;;
10432;SDS011;5263;48.680;9.004;2023-08-06T02:54:17;1.87;;;1.13;;
10432;SDS011;5263;48.680;9.004;2023-08-06T02:56:43;0.70;;;0.70;;
10432;SDS011;5263;48.680;9.004;2023-08-06T02:59:10;0.80;;;0.80;;
10432;SDS011;5263;48.680;9.004;2023-08-06T03:01:36;1.17;;;1.07;;
10432;SDS011;5263;48.680;9.004;2023-08-06T03:04:02;5.03;;;1.03;;
10432;SDS011;5263;48.680;9.004;2023-08-06T03:06:28;1.27;;;0.80;;
10432;SDS011;5263;48.680;9.004;2023-08-06T03:08:53;1.23;;;0.70;;
10432;SDS011;5263;48.680;9.004;2023-08-06T03:11:19;1.67;;;1.00;;
10432;SDS011;5263;48.680;9.004;2023-08-06T03:13:44;2.63;;;1.10;;
10432;SDS011;5263;48.680;9.004;2023-08-06T03:16:10;1.40;;;0.90;;
10432;SDS011;5263;48.680;9.004;2023-08-06T03:18:36;2.30;;;0.93;;
10432;SDS011;5263;48.680;9.004;2023-08-06T03:21:01;1.10;;;0.90;;
10432;SDS011;5263;48.680;9.004;2023-08-06T03:23:27;0.70;;;0.70;;
10432;SDS011;5263;48.680;9.004;2023-08-06T03:25:52;1.80;;;1.00;;
10432;SDS011;5263;48.680;9.004;2023-08-06T03:28:18;1.23;;;0.90;;
10432;SDS011;5263;48.680;9.004;2023-08-06T03:30:44;1.57;;;0.80;;
10432;SDS011;5263;48.680;9.004;2023-08-06T03:33:09;0.73;;;0.60;;
10432;SDS011;5263;48.680;9.004;2023-08-06T03:35:35;2.27;;;0.60;;
10432;SDS011;5263;48.680;9.004;2023-08-06T03:38:00;0.90;;;0.80;;
10432;SDS011;5263;48.680;9.004;2023-08-06T03:40:26;0.90;;;0.70;;
10432;SDS011;5263;48.680;9.004;2023-08-06T03:42:52;1.03;;;0.70;;
10432;SDS011;5263;48.680;9.004;2023-08-06T03:45:17;1.07;;;0.97;;
10432;SDS011;5263;48.680;9.004;2023-08-06T03:47:43;1.17;;;0.60;;
10432;SDS011;5263;48.680;9.004;2023-08-06T03:50:08;1.63;;;0.70;;
10432;SDS011;5263;48.680;9.004;2023-08-06T03:52:34;3.03;;;0.97;;
10432;SDS011;5263;48.680;9.004;2023-08-06T03:55:00;3.73;;;0.90;;
10432;SDS011;5263;48.680;9.004;2023-08-06T03:57:25;2.97;;;0.90;;
10432;SDS011;5263;48.680;9.004;2023-08-06T03:59:51;2.17;;;0.80;;
10432;SDS011;5263;48.680;9.004;2023-08-06T04:02:16;2.20;;;0.80;;
10432;SDS011;5263;48.680;9.004;2023-08-06T04:04:42;1.67;;;0.73;;
10432;SDS011;5263;48.680;9.004;2023-08-06T04:07:08;2.80;;;0.60;;
10432;SDS011;5263;48.680;9.004;2023-08-06T04:09:34;1.03;;;0.80;;
10432;SDS011;5263;48.680;9.004;2023-08-06T04:12:15;1.07;;;0.70;;
10432;SDS011;5263;48.680;9.004;2023-08-06T04:14:41;0.77;;;0.70;;
10432;SDS011;5263;48.680;9.004;2023-08-06T04:17:06;1.80;;;1.00;;
10432;SDS011;5263;48.680;9.004;2023-08-06T04:19:32;1.17;;;0.50;;
10432;SDS011;5263;48.680;9.004;2023-08-06T04:21:57;0.83;;;0.60;;
10432;SDS011;5263;48.680;9.004;2023-08-06T04:24:23;0.90;;;0.60;;
10432;SDS011;5263;48.680;9.004;2023-08-06T04:26:48;1.63;;;1.03;;
10432;SDS011;5263;48.680;9.004;2023-08-06T04:29:14;3.67;;;0.87;;
10432;SDS011;5263;48.680;9.004;2023-08-06T04:31:40;3.03;;;0.70;;
10432;SDS011;5263;48.680;9.004;2023-08-06T04:34:05;1.63;;;0.60;;
10432;SDS011;5263;48.680;9.004;2023-08-06T04:36:33;0.67;;;0.50;;
10432;SDS011;5263;48.680;9.004;2023-08-06T04:38:58;1.07;;;0.50;;
10432;SDS011;5263;48.680;9.004;2023-08-06T04:41:24;1.83;;;0.60;;
10432;SDS011;5263;48.680;9.004;2023-08-06T04:43:49;0.50;;;0.50;;
10432;SDS011;5263;48.680;9.004;2023-08-06T04:46:15;1.73;;;0.57;;
10432;SDS011;5263;48.680;9.004;2023-08-06T04:48:40;1.77;;;0.50;;
10432;SDS011;5263;48.680;9.004;2023-08-06T04:51:06;2.37;;;0.40;;
10432;SDS011;5263;48.680;9.004;2023-08-06T04:53:31;0.63;;;0.30;;
10432;SDS011;5263;48.680;9.004;2023-08-06T04:55:57;0.30;;;0.30;;
10432;SDS011;5263;48.680;9.004;2023-08-06T04:58:22;2.43;;;0.50;;
10432;SDS011;5263;48.680;9.004;2023-08-06T05:00:48;3.47;;;0.40;;
10432;SDS011;5263;48.680;9.004;2023-08-06T05:03:14;2.23;;;0.60;;
10432;SDS011;5263;48.680;9.004;2023-08-06T05:05:40;3.80;;;0.23;;
10432;SDS011;5263;48.680;9.004;2023-08-06T05:08:06;0.77;;;0.20;;
10432;SDS011;5263;48.680;9.004;2023-08-06T05:10:32;2.93;;;0.30;;
10432;SDS011;5263;48.680;9.004;2023-08-06T05:12:57;1.13;;;0.20;;
10432;SDS011;5263;48.680;9.004;2023-08-06T05:15:23;2.17;;;0.30;;
10432;SDS011;5263;48.680;9.004;2023-08-06T05:17:50;1.93;;;0.27;;
10432;SDS011;5263;48.680;9.004;2023-08-06T05:20:16;2.57;;;0.40;;
10432;SDS011;5263;48.680;9.004;2023-08-06T05:22:42;0.40;;;0.23;;
10432;SDS011;5263;48.680;9.004;2023-08-06T05:25:08;1.20;;;0.20;;
10432;SDS011;5263;48.680;9.004;2023-08-06T05:27:33;1.67;;;0.30;;
10432;SDS011;5263;48.680;9.004;2023-08-06T05:29:59;1.80;;;0.50;;
10432;SDS011;5263;48.680;9.004;2023-08-06T05:32:25;1.23;;;0.83;;
10432;SDS011;5263;48.680;9.004;2023-08-06T05:34:50;0.70;;;0.30;;
10432;SDS011;5263;48.680;9.004;2023-08-06T05:37:16;2.60;;;0.20;;
10432;SDS011;5263;48.680;9.004;2023-08-06T05:39:42;1.43;;;0.30;;
10432;SDS011;5263;48.680;9.004;2023-08-06T05:42:07;1.03;;;0.20;;
10432;SDS011;5263;48.680;9.004;2023-08-06T05:44:33;2.00;;;0.20;;
10432;SDS011;5263;48.680;9.004;2023-08-06T05:46:58;3.20;;;0.47;;
10432;SDS011;5263;48.680;9.004;2023-08-06T05:49:24;0.87;;;0.40;;
10432;SDS011;5263;48.680;9.004;2023-08-06T05:51:50;2.57;;;0.40;;
10432;SDS011;5263;48.680;9.004;2023-08-06T05:54:18;2.40;;;0.40;;
10432;SDS011;5263;48.680;9.004;2023-08-06T05:56:43;1.07;;;0.20;;
10432;SDS011;5263;48.680;9.004;2023-08-06T05:59:09;0.20;;;0.20;;
10432;SDS011;5263;48.680;9.004;2023-08-06T06:01:34;2.23;;;0.33;;
10432;SDS011;5263;48.680;9.004;2023-08-06T06:04:00;1.20;;;0.20;;
10432;SDS011;5263;48.680;9.004;2023-08-06T06:06:26;1.10;;;0.23;;
10432;SDS011;5263;48.680;9.004;2023-08-06T06:08:51;0.40;;;0.20;;
10432;SDS011;5263;48.680;9.004;2023-08-06T06:11:17;0.40;;;0.20;;
10432;SDS011;5263;48.680;9.004;2023-08-06T06:13:46;5.33;;;0.40;;
10432;SDS011;5263;48.680;9.004;2023-08-06T06:16:13;1.30;;;0.20;;
10432;SDS011;5263;48.680;9.004;2023-08-06T06:18:38;0.50;;;0.23;;
10432;SDS011;5263;48.680;9.004;2023-08-06T06:21:04;1.70;;;0.40;;
10432;SDS011;5263;48.680;9.004;2023-08-06T06:23:29;1.43;;;0.40;;
10432;SDS011;5263;48.680;9.004;2023-08-06T06:25:55;0.10;;;0.10;;
10432;SDS011;5263;48.680;9.004;2023-08-06T06:28:21;2.23;;;0.30;;
10432;SDS011;5263;48.680;9.004;2023-08-06T06:30:47;0.20;;;0.10;;
10432;SDS011;5263;48.680;9.004;2023-08-06T06:33:13;1.97;;;0.50;;
10432;SDS011;5263;48.680;9.004;2023-08-06T06:35:39;2.20;;;0.30;;
10432;SDS011;5263;48.680;9.004;2023-08-06T06:38:04;0.50;;;0.20;;
10432;SDS011;5263;48.680;9.004;2023-08-06T06:40:30;0.50;;;0.20;;
10432;SDS011;5263;48.680;9.004;2023-08-06T06:42:55;1.27;;;0.20;;
10432;SDS011;5263;48.680;9.004;2023-08-06T06:45:21;1.37;;;0.27;;
10432;SDS011;5263;48.680;9.004;2023-08-06T06:47:46;0.20;;;0.20;;
10432;SDS011;5263;48.680;9.004;2023-08-06T06:50:12;1.30;;;0.23;;
10432;SDS011;5263;48.680;9.004;2023-08-06T06:52:38;0.60;;;0.20;;
10432;SDS011;5263;48.680;9.004;2023-08-06T06:55:03;1.93;;;0.20;;
10432;SDS011;5263;48.680;9.004;2023-08-06T06:57:29;0.30;;;0.20;;
10432;SDS011;5263;48.680;9.004;2023-08-06T06:59:55;0.90;;;0.30;;
10432;SDS011;5263;48.680;9.004;2023-08-06T07:02:20;0.27;;;0.20;;
10432;SDS011;5263;48.680;9.004;2023-08-06T07:04:46;0.87;;;0.20;;
10432;SDS011;5263;48.680;9.004;2023-08-06T07:07:12;0.10;;;0.10;;
10432;SDS011;5263;48.680;9.004;2023-08-06T07:09:37;1.00;;;0.20;;
10432;SDS011;5263;48.680;9.004;2023-08-06T07:12:03;0.20;;;0.20;;
10432;SDS011;5263;48.680;9.004;2023-08-06T07:14:29;2.57;;;0.20;;
10432;SDS011;5263;48.680;9.004;2023-08-06T07:16:55;2.77;;;0.43;;
10432;SDS011;5263;48.680;9.004;2023-08-06T07:19:20;0.27;;;0.20;;
10432;SDS011;5263;48.680;9.004;2023-08-06T07:21:46;0.30;;;0.10;;
10432;SDS011;5263;48.680;9.004;2023-08-06T07:24:11;0.10;;;0.00;;
10432;SDS011;5263;48.680;9.004;2023-08-06T07:26:37;0.10;;;0.10;;
10432;SDS011;5263;48.680;9.004;2023-08-06T07:29:03;0.30;;;0.10;;
10432;SDS011;5263;48.680;9.004;2023-08-06T07:31:28;0.20;;;0.10;;
10432;SDS011;5263;48.680;9.004;2023-08-06T07:33:54;0.20;;;0.10;;
10432;SDS011;5263;48.680;9.004;2023-08-06T07:36:20;0.17;;;0.10;;
10432;SDS011;5263;48.680;9.004;2023-08-06T07:38:46;0.10;;;0.10;;
10432;SDS011;5263;48.680;9.004;2023-08-06T07:41:13;1.70;;;0.10;;
10432;SDS011;5263;48.680;9.004;2023-08-06T07:43:39;0.00;;;0.00;;
10432;SDS011;5263;48.680;9.004;2023-08-06T07:46:04;0.40;;;0.00;;
10432;SDS011;5263;48.680;9.004;2023-08-06T07:48:30;1.07;;;0.17;;
10432;SDS011;5263;48.680;9.004;2023-08-06T07:50:56;0.53;;;0.07;;
10432;SDS011;5263;48.680;9.004;2023-08-06T07:53:22;1.20;;;0.00;;
10432;SDS011;5263;48.680;9.004;2023-08-06T07:55:51;0.00;;;0.00;;
10432;SDS011;5263;48.680;9.004;2023-08-06T07:58:18;0.10;;;0.00;;
10432;SDS011;5263;48.680;9.004;2023-08-06T08:00:44;0.00;;;0.00;;
10432;SDS011;5263;48.680;9.004;2023-08-06T08:03:14;0.40;;;0.00;;
10432;SDS011;5263;48.680;9.004;2023-08-06T08:05:41;0.10;;;0.00;;
10432;SDS011;5263;48.680;9.004;2023-08-06T08:08:07;0.73;;;0.00;;
10432;SDS011;5263;48.680;9.004;2023-08-06T08:10:33;0.00;;;0.00;;
10432;SDS011;5263;48.680;9.004;2023-08-06T08:13:00;0.00;;;0.00;;
10432;SDS011;5263;48.680;9.004;2023-08-06T08:15:27;0.30;;;0.00;;
10432;SDS011;5263;48.680;9.004;2023-08-06T08:17:54;6.20;;;0.10;;
10432;SDS011;5263;48.680;9.004;2023-08-06T08:20:20;0.00;;;0.00;;
10432;SDS011;5263;48.680;9.004;2023-08-06T08:22:46;0.00;;;0.00;;
10432;SDS011;5263;48.680;9.004;2023-08-06T08:25:11;0.00;;;0.00;;
10432;SDS011;5263;48.680;9.004;2023-08-06T08:27:37;0.10;;;0.00;;
10432;SDS011;5263;48.680;9.004;2023-08-06T08:30:03;0.00;;;0.00;;
10432;SDS011;5263;48.680;9.004;2023-08-06T08:32:29;0.10;;;0.00;;
10432;SDS011;5263;48.680;9.004;2023-08-06T08:34:55;0.00;;;0.00;;
10432;SDS011;5263;48.680;9.004;2023-08-06T08:37:20;0.40;;;0.00;;
10432;SDS011;5263;48.680;9.004;2023-08-06T08:39:46;0.00;;;0.00;;
10432;SDS011;5263;48.680;9.004;2023-08-06T08:42:12;0.00;;;0.00;;
10432;SDS011;5263;48.680;9.004;2023-08-06T08:44:38;0.03;;;0.00;;
10432;SDS011;5263;48.680;9.004;2023-08-06T08:47:06;0.10;;;0.00;;
10432;SDS011;5263;48.680;9.004;2023-08-06T08:49:33;0.00;;;0.00;;
10432;SDS011;5263;48.680;9.004;2023-08-06T08:52:00;0.00;;;0.00;;
10432;SDS011;5263;48.680;9.004;2023-08-06T08:54:27;0.00;;;0.00;;
10432;SDS011;5263;48.680;9.004;2023-08-06T08:56:55;0.00;;;0.00;;
10432;SDS011;5263;48.680;9.004;2023-08-06T08:59:22;0.00;;;0.00;;
10432;SDS011;5263;48.680;9.004;2023-08-06T09:01:48;0.00;;;0.00;;
10432;SDS011;5263;48.680;9.004;2023-08-06T09:04:18;0.00;;;0.00;;
10432;SDS011;5263;48.680;9.004;2023-08-06T09:06:44;0.40;;;0.00;;
10432;SDS011;5263;48.680;9.004;2023-08-06T09:09:25;1.60;;;0.00;;
10432;SDS011;5263;48.680;9.004;2023-08-06T09:11:55;0.10;;;0.10;;
10432;SDS011;5263;48.680;9.004;2023-08-06T09:14:31;0.00;;;0.00;;
10432;SDS011;5263;48.680;9.004;2023-08-06T09:16:56;0.50;;;0.00;;
10432;SDS011;5263;48.680;9.004;2023-08-06T09:19:22;0.07;;;0.03;;
10432;SDS011;5263;48.680;9.004;2023-08-06T09:21:50;0.00;;;0.00;;
10432;SDS011;5263;48.680;9.004;2023-08-06T09:24:17;0.00;;;0.00;;
10432;SDS011;5263;48.680;9.004;2023-08-06T09:26:45;0.00;;;0.00;;
10432;SDS011;5263;48.680;9.004;2023-08-06T09:29:11;1.13;;;0.00;;
10432;SDS011;5263;48.680;9.004;2023-08-06T09:31:41;0.10;;;0.00;;
10432;SDS011;5263;48.680;9.004;2023-08-06T09:34:14;1.60;;;0.00;;
10432;SDS011;5263;48.680;9.004;2023-08-06T09:36:46;0.00;;;0.00;;
10432;SDS011;5263;48.680;9.004;2023-08-06T09:39:21;0.20;;;0.00;;
10432;SDS011;5263;48.680;9.004;2023-08-06T09:41:55;0.13;;;0.07;;
10432;SDS011;5263;48.680;9.004;2023-08-06T09:44:25;1.50;;;0.00;;
10432;SDS011;5263;48.680;9.004;2023-08-06T09:49:19;0.00;;;0.00;;
10432;SDS011;5263;48.680;9.004;2023-08-06T09:51:49;0.10;;;0.00;;
10432;SDS011;5263;48.680;9.004;2023-08-06T09:54:17;0.00;;;0.00;;
10432;SDS011;5263;48.680;9.004;2023-08-06T09:56:45;0.10;;;0.10;;
10432;SDS011;5263;48.680;9.004;2023-08-06T09:59:12;0.00;;;0.00;;
10432;SDS011;5263;48.680;9.004;2023-08-06T10:01:38;0.00;;;0.00;;
10432;SDS011;5263;48.680;9.004;2023-08-06T10:04:05;0.00;;;0.00;;
10432;SDS011;5263;48.680;9.004;2023-08-06T10:06:37;0.00;;;0.00;;
10432;SDS011;5263;48.680;9.004;2023-08-06T10:09:03;0.00;;;0.00;;
10432;SDS011;5263;48.680;9.004;2023-08-06T10:11:29;0.27;;;0.00;;
10432;SDS011;5263;48.680;9.004;2023-08-06T10:14:30;0.10;;;0.10;;
10432;SDS011;5263;48.680;9.004;2023-08-06T10:16:57;0.40;;;0.00;;
10432;SDS011;5263;48.680;9.004;2023-08-06T10:19:23;0.20;;;0.07;;
10432;SDS011;5263;48.680;9.004;2023-08-06T10:24:51;0.30;;;0.20;;
10432;SDS011;5263;48.680;9.004;2023-08-06T10:32:52;1.30;;;0.20;;
10432;SDS011;5263;48.680;9.004;2023-08-06T10:38:18;0.10;;;0.10;;
10432;SDS011;5263;48.680;9.004;2023-08-06T10:40:48;0.20;;;0.10;;
10432;SDS011;5263;48.680;9.004;2023-08-06T10:45:59;2.60;;;0.00;;
10432;SDS011;5263;48.680;9.004;2023-08-06T10:51:04;0.00;;;0.00;;
10432;SDS011;5263;48.680;9.004;2023-08-06T10:53:33;0.00;;;0.00;;
10432;SDS011;5263;48.680;9.004;2023-08-06T10:55:59;0.07;;;0.00;;
10432;SDS011;5263;48.680;9.004;2023-08-06T10:58:25;0.00;;;0.00;;
10432;SDS011;5263;48.680;9.004;2023-08-06T11:00:51;0.00;;;0.00;;
10432;SDS011;5263;48.680;9.004;2023-08-06T11:03:17;0.10;;;0.00;;
10432;SDS011;5263;48.680;9.004;2023-08-06T11:05:48;2.60;;;0.00;;
10432;SDS011;5263;48.680;9.004;2023-08-06T11:08:25;0.17;;;0.10;;
10432;SDS011;5263;48.680;9.004;2023-08-06T11:10:51;0.10;;;0.00;;
10432;SDS011;5263;48.680;9.004;2023-08-06T11:13:17;0.27;;;0.10;;
10432;SDS011;5263;48.680;9.004;2023-08-06T11:15:44;0.00;;;0.00;;
10432;SDS011;5263;48.680;9.004;2023-08-06T11:18:10;0.00;;;0.00;;
10432;SDS011;5263;48.680;9.004;2023-08-06T11:20:36;3.80;;;0.10;;
10432;SDS011;5263;48.680;9.004;2023-08-06T11:23:02;0.10;;;0.10;;
10432;SDS011;5263;48.680;9.004;2023-08-06T11:25:29;0.20;;;0.10;;
10432;SDS011;5263;48.680;9.004;2023-08-06T11:27:54;0.10;;;0.10;;
10432;SDS011;5263;48.680;9.004;2023-08-06T11:30:20;0.00;;;0.00;;
10432;SDS011;5263;48.680;9.004;2023-08-06T11:32:46;0.40;;;0.07;;
10432;SDS011;5263;48.680;9.004;2023-08-06T11:35:12;0.10;;;0.10;;
10432;SDS011;5263;48.680;9.004;2023-08-06T11:37:39;0.10;;;0.10;;
10432;SDS011;5263;48.680;9.004;2023-08-06T11:40:10;0.17;;;0.10;;
10432;SDS011;5263;48.680;9.004;2023-08-06T11:42:37;0.10;;;0.10;;
10432;SDS011;5263;48.680;9.004;2023-08-06T11:45:03;0.10;;;0.10;;
10432;SDS011;5263;48.680;9.004;2023-08-06T11:47:29;0.80;;;0.17;;
10432;SDS011;5263;48.680;9.004;2023-08-06T11:49:55;1.70;;;0.10;;
10432;SDS011;5263;48.680;9.004;2023-08-06T11:52:21;0.20;;;0.10;;
10432;SDS011;5263;48.680;9.004;2023-08-06T11:55:04;0.10;;;0.10;;
10432;SDS011;5263;48.680;9.004;2023-08-06T11:57:32;0.20;;;0.10;;
10432;SDS011;5263;48.680;9.004;2023-08-06T12:00:10;0.37;;;0.10;;
10432;SDS011;5263;48.680;9.004;2023-08-06T12:02:40;0.20;;;0.10;;
10432;SDS011;5263;48.680;9.004;2023-08-06T12:07:45;0.10;;;0.10;;
10432;SDS011;5263;48.680;9.004;2023-08-06T12:10:15;2.83;;;0.20;;
10432;SDS011;5263;48.680;9.004;2023-08-06T12:12:41;0.10;;;0.10;;
10432;SDS011;5263;48.680;9.004;2023-08-06T12:15:07;0.10;;;0.10;;
10432;SDS011;5263;48.680;9.004;2023-08-06T12:17:34;0.10;;;0.10;;
10432;SDS011;5263;48.680;9.004;2023-08-06T12:20:01;0.53;;;0.10;;
10432;SDS011;5263;48.680;9.004;2023-08-06T12:22:29;0.73;;;0.20;;
10432;SDS011;5263;48.680;9.004;2023-08-06T12:24:59;1.90;;;0.17;;
10432;SDS011;5263;48.680;9.004;2023-08-06T12:27:26;0.30;;;0.30;;
10432;SDS011;5263;48.680;9.004;2023-08-06T12:29:51;0.20;;;0.20;;
10432;SDS011;5263;48.680;9.004;2023-08-06T12:32:17;0.10;;;0.10;;
10432;SDS011;5263;48.680;9.004;2023-08-06T12:34:44;0.10;;;0.10;;
10432;SDS011;5263;48.680;9.004;2023-08-06T12:37:09;0.40;;;0.10;;
10432;SDS011;5263;48.680;9.004;2023-08-06T12:39:35;0.37;;;0.17;;
10432;SDS011;5263;48.680;9.004;2023-08-06T12:42:02;0.20;;;0.20;;
10432;SDS011;5263;48.680;9.004;2023-08-06T12:44:29;1.03;;;0.20;;
10432;SDS011;5263;48.680;9.004;2023-08-06T12:46:55;0.30;;;0.13;;
10432;SDS011;5263;48.680;9.004;2023-08-06T12:49:20;0.57;;;0.20;;
10432;SDS011;5263;48.680;9.004;2023-08-06T12:51:47;0.20;;;0.20;;
10432;SDS011;5263;48.680;9.004;2023-08-06T12:54:13;0.53;;;0.20;;
10432;SDS011;5263;48.680;9.004;2023-08-06T12:56:39;1.50;;;0.20;;
10432;SDS011;5263;48.680;9.004;2023-08-06T12:59:04;0.50;;;0.27;;
10432;SDS011;5263;48.680;9.004;2023-08-06T13:01:30;0.10;;;0.10;;
10432;SDS011;5263;48.680;9.004;2023-08-06T13:03:55;3.07;;;0.30;;
10432;SDS011;5263;48.680;9.004;2023-08-06T13:06:21;1.30;;;0.20;;
10432;SDS011;5263;48.680;9.004;2023-08-06T13:08:46;0.63;;;0.20;;
10432;SDS011;5263;48.680;9.004;2023-08-06T13:11:12;0.53;;;0.30;;
10432;SDS011;5263;48.680;9.004;2023-08-06T13:13:38;0.47;;;0.20;;
10432;SDS011;5263;48.680;9.004;2023-08-06T13:16:03;1.20;;;0.20;;
10432;SDS011;5263;48.680;9.004;2023-08-06T13:18:29;0.20;;;0.20;;
10432;SDS011;5263;48.680;9.004;2023-08-06T13:20:56;0.10;;;0.10;;
10432;SDS011;5263;48.680;9.004;2023-08-06T13:23:21;2.70;;;0.20;;
10432;SDS011;5263;48.680;9.004;2023-08-06T13:25:47;0.73;;;0.20;;
10432;SDS011;5263;48.680;9.004;2023-08-06T13:28:12;0.37;;;0.10;;
10432;SDS011;5263;48.680;9.004;2023-08-06T13:30:41;1.40;;;0.30;;
10432;SDS011;5263;48.680;9.004;2023-08-06T13:33:09;2.27;;;0.20;;
10432;SDS011;5263;48.680;9.004;2023-08-06T13:35:36;0.10;;;0.10;;
10432;SDS011;5263;48.680;9.004;2023-08-06T13:38:01;0.43;;;0.20;;
10432;SDS011;5263;48.680;9.004;2023-08-06T13:40:32;0.10;;;0.10;;
10432;SDS011;5263;48.680;9.004;2023-08-06T13:42:58;0.20;;;0.10;;
10432;SDS011;5263;48.680;9.004;2023-08-06T13:45:24;0.87;;;0.60;;
10432;SDS011;5263;48.680;9.004;2023-08-06T13:47:50;0.10;;;0.10;;
10432;SDS011;5263;48.680;9.004;2023-08-06T13:50:15;0.17;;;0.17;;
10432;SDS011;5263;48.680;9.004;2023-08-06T13:52:41;0.60;;;0.10;;
10432;SDS011;5263;48.680;9.004;2023-08-06T13:55:07;0.03;;;0.03;;
10432;SDS011;5263;48.680;9.004;2023-08-06T13:57:33;0.93;;;0.20;;
10432;SDS011;5263;48.680;9.004;2023-08-06T14:00:00;1.30;;;0.20;;
10432;SDS011;5263;48.680;9.004;2023-08-06T14:02:26;1.60;;;0.33;;
10432;SDS011;5263;48.680;9.004;2023-08-06T14:04:52;0.87;;;0.10;;
10432;SDS011;5263;48.680;9.004;2023-08-06T14:07:18;0.47;;;0.20;;
10432;SDS011;5263;48.680;9.004;2023-08-06T14:09:43;0.53;;;0.20;;
10432;SDS011;5263;48.680;9.004;2023-08-06T14:12:09;0.77;;;0.20;;
10432;SDS011;5263;48.680;9.004;2023-08-06T14:14:35;0.53;;;0.10;;
10432;SDS011;5263;48.680;9.004;2023-08-06T14:17:01;5.00;;;0.13;;
10432;SDS011;5263;48.680;9.004;2023-08-06T14:19:26;0.40;;;0.10;;
10432;SDS011;5263;48.680;9.004;2023-08-06T14:21:52;0.20;;;0.20;;
10432;SDS011;5263;48.680;9.004;2023-08-06T14:24:18;0.97;;;0.20;;
10432;SDS011;5263;48.680;9.004;2023-08-06T14:26:44;1.80;;;0.20;;
10432;SDS011;5263;48.680;9.004;2023-08-06T14:29:10;0.60;;;0.20;;
10432;SDS011;5263;48.680;9.004;2023-08-06T14:31:35;0.30;;;0.20;;
10432;SDS011;5263;48.680;9.004;2023-08-06T14:34:01;0.37;;;0.20;;
10432;SDS011;5263;48.680;9.004;2023-08-06T14:36:27;0.20;;;0.20;;
10432;SDS011;5263;48.680;9.004;2023-08-06T14:38:52;0.10;;;0.10;;
10432;SDS011;5263;48.680;9.004;2023-08-06T14:41:18;0.43;;;0.10;;
10432;SDS011;5263;48.680;9.004;2023-08-06T14:43:43;1.37;;;1.10;;
10432;SDS011;5263;48.680;9.004;2023-08-06T14:46:09;0.10;;;0.10;;
10432;SDS011;5263;48.680;9.004;2023-08-06T14:48:34;0.47;;;0.10;;
10432;SDS011;5263;48.680;9.004;2023-08-06T14:51:00;0.20;;;0.10;;
10432;SDS011;5263;48.680;9.004;2023-08-06T14:53:26;0.10;;;0.10;;
10432;SDS011;5263;48.680;9.004;2023-08-06T14:55:51;0.20;;;0.10;;
10432;SDS011;5263;48.680;9.004;2023-08-06T14:58:17;0.10;;;0.10;;
10432;SDS011;5263;48.680;9.004;2023-08-06T15:00:44;0.30;;;0.20;;
10432;SDS011;5263;48.680;9.004;2023-08-06T15:03:10;1.27;;;0.20;;
10432;SDS011;5263;48.680;9.004;2023-08-06T15:05:36;0.63;;;0.20;;
10432;SDS011;5263;48.680;9.004;2023-08-06T15:08:02;0.17;;;0.10;;
10432;SDS011;5263;48.680;9.004;2023-08-06T15:10:28;1.20;;;0.20;;
10432;SDS011;5263;48.680;9.004;2023-08-06T15:12:53;0.20;;;0.20;;
10432;SDS011;5263;48.680;9.004;2023-08-06T15:15:19;0.10;;;0.10;;
10432;SDS011;5263;48.680;9.004;2023-08-06T15:17:47;0.20;;;0.20;;
10432;SDS011;5263;48.680;9.004;2023-08-06T15:20:12;0.20;;;0.10;;
10432;SDS011;5263;48.680;9.004;2023-08-06T15:22:38;0.20;;;0.20;;
10432;SDS011;5263;48.680;9.004;2023-08-06T15:25:04;0.33;;;0.10;;